Time;durP1;ratioP1;P1;durP2;ratioP2;P2;SDS_P1;SDS_P2;PMS_P1;PMS_P2;Temp;Humidity;BMP_temperature;BMP_pressure;BME280_temperature;BME280_humidity;BME280_pressure;Samples;Min_cycle;Max_cycle;Signal;HPM_P1;HPM_P2
2021/06/25 00:01:37;;;;;;;7.40;5.38;;;19.70;64.30;;;;;;4942256;29;20050;-70
2021/06/25 00:04:03;;;;;;;8.32;5.82;;;19.70;64.30;;;;;;4944170;28;20475;-71
2021/06/25 00:06:30;;;;;;;7.57;5.90;;;19.70;64.10;;;;;;4943278;29;20043;-70
2021/06/25 00:08:55;;;;;;;6.45;5.80;;;19.70;63.90;;;;;;4944462;29;20106;-70
2021/06/25 00:11:21;;;;;;;8.18;5.82;;;19.80;64.00;;;;;;4943206;29;20042;-69
2021/06/25 00:13:47;;;;;;;7.85;5.65;;;19.70;63.90;;;;;;4941668;29;20509;-70
2021/06/25 00:16:13;;;;;;;7.00;5.95;;;19.80;63.90;;;;;;4943179;29;20061;-70
2021/06/25 00:18:39;;;;;;;7.18;5.50;;;19.70;63.80;;;;;;4924516;29;20040;-70
2021/06/25 00:21:05;;;;;;;6.95;5.88;;;19.70;63.90;;;;;;4942661;29;20118;-69
2021/06/25 00:23:31;;;;;;;7.15;5.65;;;19.70;64.00;;;;;;4942037;29;20047;-69
2021/06/25 00:25:57;;;;;;;7.65;5.97;;;19.70;64.20;;;;;;4940943;29;20039;-70
2021/06/25 00:28:23;;;;;;;6.63;5.55;;;19.70;64.10;;;;;;4941877;29;20039;-69
2021/06/25 00:30:49;;;;;;;7.95;6.18;;;19.70;63.90;;;;;;4942507;29;20035;-69
2021/06/25 00:33:16;;;;;;;7.38;5.53;;;19.70;63.80;;;;;;4942317;29;20039;-69
2021/06/25 00:35:42;;;;;;;6.97;5.18;;;19.60;63.90;;;;;;4942785;29;20035;-68
2021/06/25 00:38:08;;;;;;;7.47;5.47;;;19.60;64.00;;;;;;4940661;29;20101;-68
2021/06/25 00:40:34;;;;;;;7.15;5.55;;;19.60;64.10;;;;;;4941542;29;20043;-68
2021/06/25 00:43:01;;;;;;;8.23;5.82;;;19.60;64.10;;;;;;4942518;29;20069;-68
2021/06/25 00:45:27;;;;;;;7.30;5.50;;;19.60;64.10;;;;;;4943772;29;20973;-68
2021/06/25 00:47:53;;;;;;;7.43;5.57;;;19.60;64.10;;;;;;4941073;29;20046;-70
2021/06/25 00:50:31;;;;;;;6.82;5.93;;;19.60;64.10;;;;;;4941813;29;20055;-68
2021/06/25 00:52:59;;;;;;;7.63;5.95;;;19.60;64.10;;;;;;4941209;29;20040;-68
2021/06/25 00:55:27;;;;;;;6.63;5.90;;;19.50;64.10;;;;;;4941155;29;20035;-69
2021/06/25 00:57:54;;;;;;;6.53;5.35;;;19.50;64.20;;;;;;4941267;29;20035;-69
2021/06/25 01:00:20;;;;;;;7.78;6.20;;;19.50;64.40;;;;;;4942378;29;20063;-68
2021/06/25 01:02:46;;;;;;;5.57;5.07;;;19.50;64.70;;;;;;4942427;28;20040;-68
2021/06/25 01:05:14;;;;;;;5.63;5.15;;;19.40;64.30;;;;;;4933752;29;20051;-68
2021/06/25 01:07:40;;;;;;;6.43;4.80;;;19.30;63.80;;;;;;4940683;29;20055;-68
2021/06/25 01:10:09;;;;;;;6.65;5.38;;;18.80;65.10;;;;;;4941961;28;20050;-68
2021/06/25 01:12:35;;;;;;;6.22;5.00;;;18.60;66.30;;;;;;4940072;29;20165;-68
2021/06/25 01:15:02;;;;;;;6.70;5.18;;;18.60;66.50;;;;;;4939771;29;20039;-68
2021/06/25 01:17:30;;;;;;;8.02;4.97;;;18.60;66.50;;;;;;4941439;29;20035;-69
2021/06/25 01:19:57;;;;;;;5.80;4.50;;;18.70;66.40;;;;;;4939742;29;20055;-68
2021/06/25 01:22:39;;;;;;;5.95;4.85;;;18.80;66.70;;;;;;4940805;29;20094;-69
2021/06/25 01:25:21;;;;;;;6.60;5.23;;;19.00;65.90;;;;;;4939580;29;20058;-68
2021/06/25 01:27:50;;;;;;;6.40;5.35;;;19.00;65.80;;;;;;4940383;29;20054;-68
2021/06/25 01:30:20;;;;;;;6.30;5.63;;;18.80;65.70;;;;;;4941160;29;20437;-69
2021/06/25 01:32:46;;;;;;;7.70;5.57;;;18.60;65.80;;;;;;4939999;29;21567;-70
2021/06/25 01:35:13;;;;;;;6.88;6.18;;;18.20;66.60;;;;;;4941557;29;20040;-68
2021/06/25 01:37:40;;;;;;;5.55;5.05;;;17.80;67.00;;;;;;4939639;29;20098;-68
2021/06/25 01:40:08;;;;;;;6.03;5.45;;;17.40;68.00;;;;;;4938589;29;20040;-67
2021/06/25 01:42:37;;;;;;;5.38;4.85;;;17.20;68.80;;;;;;4909166;29;20047;-68
2021/06/25 01:45:09;;;;;;;7.30;5.55;;;17.00;69.50;;;;;;4938508;29;20129;-69
2021/06/25 01:47:36;;;;;;;6.73;4.97;;;16.90;69.60;;;;;;4940010;29;20046;-59
2021/06/25 01:50:07;;;;;;;6.05;4.90;;;16.70;70.40;;;;;;4939293;29;20055;-60
2021/06/25 01:52:33;;;;;;;6.53;4.95;;;16.70;70.90;;;;;;4940841;29;20051;-59
2021/06/25 01:55:00;;;;;;;6.03;4.93;;;16.60;71.30;;;;;;4938511;29;20051;-59
2021/06/25 01:57:26;;;;;;;5.35;4.68;;;16.60;71.20;;;;;;4940924;29;20055;-59
2021/06/25 01:59:52;;;;;;;5.70;4.00;;;16.70;71.40;;;;;;4938406;29;20043;-60
2021/06/25 02:02:17;;;;;;;4.72;3.92;;;17.00;71.40;;;;;;4939564;29;20039;-59
2021/06/25 02:04:43;;;;;;;7.25;4.47;;;17.20;70.70;;;;;;4922023;29;20042;-59
2021/06/25 02:07:09;;;;;;;4.40;3.78;;;17.40;70.10;;;;;;4921684;29;20035;-59
2021/06/25 02:09:35;;;;;;;6.70;4.05;;;17.60;69.60;;;;;;4940190;29;20182;-61
2021/06/25 02:12:02;;;;;;;4.65;3.95;;;17.80;68.10;;;;;;4939186;29;20039;-59
2021/06/25 02:14:29;;;;;;;6.45;4.88;;;17.70;67.80;;;;;;4940398;29;20035;-60
2021/06/25 02:16:55;;;;;;;6.40;4.18;;;17.70;67.90;;;;;;4938378;29;20697;-59
2021/06/25 02:19:21;;;;;;;6.20;4.50;;;17.60;67.40;;;;;;4939349;29;20047;-59
2021/06/25 02:21:46;;;;;;;5.63;4.90;;;17.30;67.80;;;;;;4938967;28;20133;-59
2021/06/25 02:24:12;;;;;;;5.70;3.85;;;16.90;68.10;;;;;;4943144;29;20087;-58
2021/06/25 02:26:38;;;;;;;6.28;4.38;;;16.70;69.80;;;;;;4943338;29;20039;-59
2021/06/25 02:29:04;;;;;;;7.00;4.93;;;16.80;70.60;;;;;;4942943;29;20036;-59
2021/06/25 02:31:29;;;;;;;5.38;4.38;;;17.00;69.20;;;;;;4941810;29;20047;-59
2021/06/25 02:33:55;;;;;;;6.07;4.20;;;16.90;68.70;;;;;;4943331;29;20046;-69
2021/06/25 02:36:21;;;;;;;6.72;4.65;;;16.80;69.40;;;;;;4942962;29;20059;-59
2021/06/25 02:38:46;;;;;;;5.75;3.45;;;16.90;70.40;;;;;;4942343;29;20035;-58
2021/06/25 02:41:12;;;;;;;6.15;3.40;;;17.10;70.50;;;;;;4942257;29;20686;-59
2021/06/25 02:43:38;;;;;;;5.97;3.35;;;17.30;69.70;;;;;;4942736;29;20476;-58
2021/06/25 02:46:04;;;;;;;4.75;3.85;;;17.50;69.40;;;;;;4941825;29;20139;-58
2021/06/25 02:48:30;;;;;;;5.80;4.07;;;17.70;69.00;;;;;;4940825;29;20040;-59
2021/06/25 02:50:56;;;;;;;5.88;3.45;;;17.80;67.90;;;;;;4912495;29;20507;-59
2021/06/25 02:53:21;;;;;;;5.45;3.67;;;17.80;68.10;;;;;;4922765;29;20492;-59
2021/06/25 02:55:51;;;;;;;4.75;3.80;;;17.90;68.00;;;;;;4924009;29;20420;-59
2021/06/25 02:58:21;;;;;;;4.35;3.40;;;18.00;66.20;;;;;;4923168;29;20040;-59
2021/06/25 03:00:49;;;;;;;4.90;4.38;;;17.90;66.40;;;;;;4923417;29;20119;-59
2021/06/25 03:03:15;;;;;;;3.92;3.22;;;17.70;67.10;;;;;;4924123;29;20043;-59
2021/06/25 03:05:42;;;;;;;4.55;4.00;;;17.50;67.70;;;;;;4923797;29;20073;-59
2021/06/25 03:08:08;;;;;;;4.47;3.70;;;17.30;67.30;;;;;;4906409;29;20047;-59
2021/06/25 03:10:34;;;;;;;6.38;4.22;;;17.20;67.20;;;;;;4907814;29;20055;-59
2021/06/25 03:13:01;;;;;;;5.80;3.00;;;17.00;67.70;;;;;;4907329;29;20409;-59
2021/06/25 03:15:27;;;;;;;3.85;3.05;;;17.10;68.60;;;;;;4922656;29;20135;-69
2021/06/25 03:17:53;;;;;;;5.50;3.13;;;17.20;68.90;;;;;;4923309;29;20534;-70
2021/06/25 03:20:19;;;;;;;4.20;3.08;;;17.40;68.90;;;;;;4923646;29;20036;-69
2021/06/25 03:22:44;;;;;;;5.78;3.92;;;17.60;68.50;;;;;;4923530;29;20032;-69
2021/06/25 03:25:11;;;;;;;8.60;3.75;;;17.70;67.70;;;;;;4923290;29;20103;-70
2021/06/25 03:27:37;;;;;;;6.63;5.03;;;17.70;66.90;;;;;;4924087;29;20040;-68
2021/06/25 03:30:05;;;;;;;5.40;4.13;;;17.20;66.50;;;;;;4922972;29;20048;-69
2021/06/25 03:32:31;;;;;;;5.35;3.92;;;16.60;67.70;;;;;;4923544;29;20051;-69
2021/06/25 03:34:57;;;;;;;5.65;4.93;;;16.20;69.20;;;;;;4906625;29;20036;-68
2021/06/25 03:37:23;;;;;;;4.32;3.38;;;15.80;69.90;;;;;;4907359;29;20111;-68
2021/06/25 03:39:49;;;;;;;7.28;5.20;;;15.60;71.50;;;;;;4905355;29;20059;-70
2021/06/25 03:42:15;;;;;;;3.58;2.95;;;15.70;71.90;;;;;;4906019;29;20044;-69
2021/06/25 03:44:41;;;;;;;4.35;3.35;;;16.00;72.20;;;;;;4905460;29;20481;-69
2021/06/25 03:47:08;;;;;;;3.45;2.50;;;16.30;72.40;;;;;;4908552;29;20043;-69
2021/06/25 03:49:34;;;;;;;4.38;3.65;;;16.60;71.80;;;;;;4909547;29;20099;-68
2021/06/25 03:52:00;;;;;;;7.93;3.90;;;16.90;71.00;;;;;;4923120;29;20059;-69
2021/06/25 03:54:27;;;;;;;5.57;4.95;;;17.00;69.50;;;;;;4941883;29;20125;-69
2021/06/25 03:56:53;;;;;;;5.30;4.32;;;16.80;69.00;;;;;;4940665;29;20043;-68
2021/06/25 03:59:19;;;;;;;3.80;3.20;;;16.60;69.50;;;;;;4926051;29;20035;-69
2021/06/25 04:01:45;;;;;;;2.95;2.63;;;16.50;71.00;;;;;;4942358;29;20046;-69
2021/06/25 04:04:11;;;;;;;4.88;2.80;;;16.50;71.60;;;;;;4909550;29;20050;-68
2021/06/25 04:06:37;;;;;;;3.20;2.40;;;16.70;71.50;;;;;;4942204;29;20076;-69
2021/06/25 04:09:04;;;;;;;3.92;2.88;;;16.90;70.90;;;;;;4941917;29;20047;-68
2021/06/25 04:11:30;;;;;;;8.30;4.22;;;17.10;70.20;;;;;;4942762;29;20042;-69
2021/06/25 04:13:56;;;;;;;5.10;3.38;;;17.20;69.60;;;;;;4924479;29;22217;-68
2021/06/25 04:16:22;;;;;;;3.75;2.80;;;17.20;69.30;;;;;;4925902;29;20043;-68
2021/06/25 04:18:48;;;;;;;3.53;2.85;;;17.10;69.60;;;;;;4941664;29;20459;-68
2021/06/25 04:21:14;;;;;;;4.32;3.58;;;17.20;70.10;;;;;;4924393;29;20048;-68
2021/06/25 04:23:39;;;;;;;4.63;3.17;;;17.30;69.90;;;;;;4941844;29;20051;-69
2021/06/25 04:26:05;;;;;;;9.38;5.93;;;17.30;69.70;;;;;;4940104;29;20485;-68
2021/06/25 04:28:40;;;;;;;4.57;3.00;;;17.20;69.00;;;;;;4941813;29;20389;-69
2021/06/25 04:31:06;;;;;;;7.03;4.95;;;17.10;69.80;;;;;;4941640;29;20496;-69
2021/06/25 04:33:32;;;;;;;5.15;2.63;;;17.10;69.50;;;;;;4925055;29;20043;-69
2021/06/25 04:35:58;;;;;;;5.38;3.08;;;17.10;70.10;;;;;;4941264;29;20055;-69
2021/06/25 04:38:25;;;;;;;5.50;2.17;;;17.30;70.10;;;;;;4942902;29;20079;-69
2021/06/25 04:40:51;;;;;;;5.40;4.32;;;17.30;69.90;;;;;;4939398;29;20035;-69
2021/06/25 04:43:18;;;;;;;7.22;5.80;;;17.40;69.30;;;;;;4941129;29;20055;-69
2021/06/25 04:45:44;;;;;;;7.07;5.82;;;17.30;69.10;;;;;;4923836;29;20059;-69
2021/06/25 04:48:13;;;;;;;2.95;2.40;;;17.00;69.90;;;;;;4942660;29;20126;-69
2021/06/25 04:50:40;;;;;;;5.05;2.13;;;16.90;70.50;;;;;;4941411;29;20134;-69
2021/06/25 04:53:07;;;;;;;4.50;2.00;;;17.10;71.10;;;;;;4941408;29;20126;-69
2021/06/25 04:55:42;;;;;;;3.95;2.15;;;17.30;70.80;;;;;;4941467;29;20134;-69
2021/06/25 04:58:10;;;;;;;3.45;2.30;;;17.50;70.20;;;;;;4940646;29;20043;-69
2021/06/25 05:00:37;;;;;;;3.33;2.03;;;17.70;69.50;;;;;;4940586;29;20523;-69
2021/06/25 05:03:05;;;;;;;4.85;2.22;;;18.00;69.40;;;;;;4923851;29;20113;-69
2021/06/25 05:05:32;;;;;;;2.15;1.92;;;18.10;68.60;;;;;;4939702;29;20055;-68
2021/06/25 05:07:58;;;;;;;1.92;1.67;;;18.20;68.60;;;;;;4941000;29;20114;-69
2021/06/25 05:10:24;;;;;;;3.63;1.83;;;18.40;67.80;;;;;;4941535;29;20118;-69
2021/06/25 05:12:50;;;;;;;2.90;2.45;;;18.50;67.50;;;;;;4939820;29;20031;-68
2021/06/25 05:15:16;;;;;;;3.75;1.88;;;18.50;67.00;;;;;;4939691;29;20031;-69
2021/06/25 05:17:42;;;;;;;3.67;2.50;;;18.60;66.70;;;;;;4923929;29;20129;-69
2021/06/25 05:20:08;;;;;;;2.55;1.85;;;18.70;66.40;;;;;;4940084;29;20126;-59
2021/06/25 05:22:34;;;;;;;2.63;2.35;;;18.70;66.30;;;;;;4940454;29;20042;-59
2021/06/25 05:25:01;;;;;;;2.05;1.73;;;18.70;65.90;;;;;;4941155;29;20039;-60
2021/06/25 05:27:27;;;;;;;2.63;2.17;;;18.80;65.90;;;;;;4940169;29;20062;-60
2021/06/25 05:29:52;;;;;;;4.40;2.58;;;18.80;65.70;;;;;;4937209;29;20035;-59
2021/06/25 05:32:18;;;;;;;3.08;1.85;;;18.90;65.60;;;;;;4939129;29;20079;-60
2021/06/25 05:34:45;;;;;;;4.00;2.13;;;19.00;65.50;;;;;;4938521;29;20515;-59
2021/06/25 05:37:12;;;;;;;6.43;2.40;;;19.00;65.30;;;;;;4939872;29;20050;-59
2021/06/25 05:39:38;;;;;;;3.30;2.47;;;19.10;65.30;;;;;;4941086;29;20042;-60
2021/06/25 05:42:04;;;;;;;5.75;2.65;;;19.10;65.20;;;;;;4937552;29;20039;-59
2021/06/25 05:44:30;;;;;;;6.55;3.55;;;19.10;65.20;;;;;;4939759;29;20070;-59
2021/06/25 05:46:56;;;;;;;7.03;4.50;;;19.10;64.80;;;;;;4922967;29;20039;-59
2021/06/25 05:49:22;;;;;;;10.57;8.77;;;18.90;65.00;;;;;;4938125;29;20031;-59
2021/06/25 05:51:49;;;;;;;10.25;9.18;;;18.50;66.50;;;;;;4939149;29;20074;-58
2021/06/25 05:54:16;;;;;;;11.15;9.15;;;18.00;67.40;;;;;;4921763;29;20507;-58
2021/06/25 05:56:42;;;;;;;8.68;5.32;;;17.40;69.10;;;;;;4941379;28;20034;-59
2021/06/25 05:59:08;;;;;;;10.10;7.50;;;17.10;70.50;;;;;;4927004;29;20047;-59
2021/06/25 06:01:34;;;;;;;7.93;6.22;;;17.00;71.40;;;;;;4940537;29;20046;-58
2021/06/25 06:04:00;;;;;;;6.20;4.55;;;17.00;71.70;;;;;;4945334;28;20031;-59
2021/06/25 06:06:26;;;;;;;5.65;4.50;;;17.00;71.60;;;;;;4944712;29;20032;-59
2021/06/25 06:08:52;;;;;;;12.27;9.18;;;17.20;71.50;;;;;;4945957;29;20041;-58
2021/06/25 06:11:18;;;;;;;7.50;6.72;;;17.20;71.30;;;;;;4927740;29;20523;-58
2021/06/25 06:13:44;;;;;;;11.85;10.65;;;17.20;71.60;;;;;;4944357;29;20042;-58
2021/06/25 06:16:10;;;;;;;6.03;4.93;;;17.10;71.90;;;;;;4945682;29;20586;-58
2021/06/25 06:21:02;;;;;;;12.68;10.13;;;17.00;72.30;;;;;;4945327;28;20075;-58
2021/06/25 06:31:47;;;;;;;10.50;9.38;;;16.70;73.60;;;;;;4947368;28;20447;-62
2021/06/25 06:34:13;;;;;;;9.63;7.97;;;16.50;73.70;;;;;;4944377;29;20047;-59
2021/06/25 06:36:45;;;;;;;11.82;9.80;;;16.60;74.50;;;;;;4946162;29;20071;-62
2021/06/25 06:39:13;;;;;;;10.20;8.80;;;16.70;74.70;;;;;;4928796;29;20050;-59
2021/06/25 06:41:40;;;;;;;12.57;10.15;;;16.80;74.50;;;;;;4944227;28;20036;-61
2021/06/25 06:44:06;;;;;;;8.57;6.75;;;17.10;74.50;;;;;;4927910;29;20039;-59
2021/06/25 06:46:33;;;;;;;13.85;7.93;;;17.40;73.70;;;;;;4945562;28;20043;-58
2021/06/25 06:48:59;;;;;;;10.02;5.90;;;17.90;72.70;;;;;;4944132;28;20050;-58
2021/06/25 06:51:25;;;;;;;8.50;6.15;;;18.40;70.90;;;;;;4942910;28;20464;-57
2021/06/25 06:53:52;;;;;;;7.72;5.10;;;18.90;69.30;;;;;;4945921;29;20133;-58
2021/06/25 06:56:21;;;;;;;8.48;6.25;;;19.20;68.20;;;;;;4945913;28;20040;-62
2021/06/25 06:58:48;;;;;;;7.38;5.82;;;19.40;67.60;;;;;;4943515;29;20055;-62
2021/06/25 07:01:15;;;;;;;7.30;5.63;;;19.80;66.50;;;;;;4943462;28;20051;-61
2021/06/25 07:03:42;;;;;;;19.92;11.05;;;20.10;65.00;;;;;;4946849;28;20043;-62
2021/06/25 07:06:08;;;;;;;5.72;4.32;;;20.10;64.20;;;;;;4946078;29;20832;-58
2021/06/25 07:08:34;;;;;;;11.00;8.00;;;20.10;64.00;;;;;;4943350;28;20141;-58
2021/06/25 07:11:00;;;;;;;9.18;7.68;;;20.00;63.00;;;;;;4942259;29;20086;-62
2021/06/25 07:13:27;;;;;;;10.82;8.38;;;19.80;62.20;;;;;;4940662;29;20036;-61
2021/06/25 07:15:54;;;;;;;6.60;5.57;;;19.80;61.70;;;;;;4941983;29;20572;-61
2021/06/25 07:18:21;;;;;;;10.93;6.72;;;19.70;62.50;;;;;;4929498;29;20083;-62
2021/06/25 07:20:47;;;;;;;9.18;6.82;;;20.00;62.80;;;;;;4907022;29;20043;-62
2021/06/25 07:23:13;;;;;;;6.57;4.05;;;20.20;62.10;;;;;;4942192;29;20039;-61
2021/06/25 07:25:39;;;;;;;8.82;6.78;;;20.50;61.70;;;;;;4942132;29;20105;-58
2021/06/25 07:28:05;;;;;;;10.48;6.57;;;20.80;59.00;;;;;;4941942;29;20035;-58
2021/06/25 07:30:31;;;;;;;7.40;5.78;;;20.60;57.80;;;;;;4942156;29;20039;-58
2021/06/25 07:32:57;;;;;;;6.82;5.25;;;20.50;58.50;;;;;;4943099;29;20039;-58
2021/06/25 07:35:23;;;;;;;7.72;6.38;;;20.30;56.80;;;;;;4940895;29;20047;-57
2021/06/25 07:37:49;;;;;;;7.43;6.18;;;20.20;56.20;;;;;;4941876;29;20110;-58
2021/06/25 07:40:16;;;;;;;7.28;6.50;;;20.00;56.40;;;;;;4942393;29;20047;-58
2021/06/25 07:42:42;;;;;;;7.20;6.45;;;20.00;57.50;;;;;;4941553;29;21025;-58
2021/06/25 07:45:10;;;;;;;7.70;5.65;;;20.00;57.40;;;;;;4940306;29;20051;-58
2021/06/25 07:47:36;;;;;;;5.55;4.90;;;20.00;57.90;;;;;;4941425;29;20058;-57
2021/06/25 07:50:05;;;;;;;7.00;4.35;;;20.20;58.20;;;;;;4941356;29;20504;-57
2021/06/25 07:52:31;;;;;;;5.75;3.90;;;20.30;57.60;;;;;;4941105;29;20059;-58
2021/06/25 07:55:16;;;;;;;5.03;4.50;;;20.60;57.30;;;;;;4927708;29;20051;-58
2021/06/25 07:57:43;;;;;;;5.50;3.60;;;21.10;56.60;;;;;;4939677;29;20496;-58
2021/06/25 08:00:11;;;;;;;6.63;4.95;;;21.40;56.90;;;;;;4939838;29;20039;-57
2021/06/25 08:02:37;;;;;;;8.07;4.93;;;21.90;55.50;;;;;;4940773;29;20102;-58
2021/06/25 08:05:04;;;;;;;8.95;5.53;;;22.20;54.40;;;;;;4938653;29;20440;-57
2021/06/25 08:07:30;;;;;;;7.55;6.00;;;22.40;53.80;;;;;;4940557;29;20039;-58
2021/06/25 08:09:56;;;;;;;7.60;5.65;;;22.40;53.60;;;;;;4939513;29;20055;-57
2021/06/25 08:12:22;;;;;;;5.68;4.30;;;22.50;54.20;;;;;;4941306;29;20047;-58
2021/06/25 08:14:47;;;;;;;6.53;5.45;;;22.80;54.50;;;;;;4942568;29;20031;-57
2021/06/25 08:17:13;;;;;;;5.45;4.93;;;23.10;53.70;;;;;;4939467;29;20416;-58
2021/06/25 08:19:41;;;;;;;25.98;22.08;;;23.30;53.60;;;;;;4940003;28;20170;-57
2021/06/25 08:22:07;;;;;;;8.90;7.78;;;23.50;53.60;;;;;;4940936;29;20065;-57
2021/06/25 08:24:34;;;;;;;7.72;5.95;;;23.60;53.50;;;;;;4939469;29;20051;-58
2021/06/25 08:27:01;;;;;;;5.85;4.18;;;23.70;53.30;;;;;;4922087;29;20039;-57
2021/06/25 08:29:27;;;;;;;5.63;4.75;;;23.90;53.40;;;;;;4922237;29;20091;-58
2021/06/25 08:31:53;;;;;;;6.80;6.10;;;23.90;52.30;;;;;;4923702;29;20047;-58
2021/06/25 08:34:19;;;;;;;7.70;6.90;;;23.90;52.60;;;;;;4938617;29;20546;-58
2021/06/25 08:36:45;;;;;;;6.30;5.70;;;23.80;52.60;;;;;;4939046;29;20039;-57
2021/06/25 08:39:10;;;;;;;6.68;5.22;;;23.60;53.00;;;;;;4938936;29;20039;-58
2021/06/25 08:41:38;;;;;;;8.50;6.25;;;23.70;53.40;;;;;;4938235;29;20039;-58
2021/06/25 08:44:06;;;;;;;6.93;6.22;;;23.80;53.60;;;;;;4940454;29;20038;-59
2021/06/25 08:46:33;;;;;;;7.63;6.55;;;24.00;53.50;;;;;;4924950;29;20044;-58
2021/06/25 08:49:04;;;;;;;5.78;5.28;;;23.90;52.50;;;;;;4939695;29;20043;-59
2021/06/25 08:51:34;;;;;;;11.23;7.70;;;23.70;53.00;;;;;;4940047;29;20055;-59
2021/06/25 08:54:20;;;;;;;7.85;7.10;;;23.30;53.10;;;;;;4925866;29;20115;-58
2021/06/25 08:56:45;;;;;;;6.80;6.10;;;22.80;54.10;;;;;;4939654;29;20432;-59
2021/06/25 08:59:18;;;;;;;8.43;7.00;;;22.40;54.30;;;;;;4941141;28;20039;-58
2021/06/25 09:01:48;;;;;;;7.88;4.50;;;22.10;54.90;;;;;;4938947;29;20067;-59
2021/06/25 09:04:33;;;;;;;7.20;6.00;;;22.00;56.50;;;;;;4939500;29;20044;-58
2021/06/25 09:06:59;;;;;;;8.20;7.28;;;22.20;56.80;;;;;;4939649;29;20047;-59
2021/06/25 09:09:37;;;;;;;8.38;6.80;;;22.40;55.70;;;;;;4923428;29;20035;-58
2021/06/25 09:12:15;;;;;;;7.75;5.82;;;22.30;55.00;;;;;;4940404;29;20579;-58
2021/06/25 09:15:02;;;;;;;8.73;7.65;;;22.30;55.70;;;;;;4939832;29;20503;-58
2021/06/25 09:17:29;;;;;;;8.85;6.85;;;22.20;56.00;;;;;;4940142;29;20047;-60
2021/06/25 09:19:55;;;;;;;10.55;6.40;;;22.10;56.00;;;;;;4939042;29;20039;-64
2021/06/25 09:22:21;;;;;;;10.63;7.60;;;22.10;56.20;;;;;;4938917;29;20039;-58
2021/06/25 09:25:07;;;;;;;12.50;7.20;;;22.00;56.10;;;;;;4939359;29;20051;-58
2021/06/25 09:27:34;;;;;;;9.57;7.32;;;22.00;56.80;;;;;;4938285;29;20047;-58
2021/06/25 09:30:12;;;;;;;7.50;6.70;;;22.00;56.70;;;;;;4938075;29;20031;-58
2021/06/25 09:32:39;;;;;;;9.98;6.75;;;22.10;56.30;;;;;;4939422;29;20047;-57
2021/06/25 09:35:19;;;;;;;9.23;7.97;;;22.10;56.00;;;;;;4939944;29;20031;-57
2021/06/25 09:37:48;;;;;;;10.38;8.07;;;22.10;56.50;;;;;;4939030;28;20412;-57
2021/06/25 09:40:16;;;;;;;21.67;6.70;;;22.00;57.00;;;;;;4940715;29;20071;-58
2021/06/25 09:42:44;;;;;;;8.52;7.55;;;21.90;57.50;;;;;;4939940;29;20047;-57
2021/06/25 09:45:19;;;;;;;9.23;8.23;;;22.00;56.90;;;;;;4938949;29;20047;-59
2021/06/25 09:47:52;;;;;;;11.18;7.85;;;21.80;56.70;;;;;;4939235;29;20209;-60
2021/06/25 09:50:27;;;;;;;11.93;8.32;;;21.50;57.20;;;;;;4921757;29;20047;-59
2021/06/25 09:53:06;;;;;;;8.60;5.82;;;21.40;57.60;;;;;;4938851;29;20044;-60
2021/06/25 09:55:54;;;;;;;10.82;7.15;;;21.40;58.60;;;;;;4938917;29;20053;-59
2021/06/25 09:58:35;;;;;;;10.02;7.45;;;21.50;59.00;;;;;;4939735;29;20492;-59
2021/06/25 10:01:25;;;;;;;7.75;5.07;;;21.40;58.60;;;;;;4940800;29;20043;-57
2021/06/25 10:03:57;;;;;;;6.55;4.57;;;21.50;58.50;;;;;;4933601;29;20062;-57
2021/06/25 10:06:24;;;;;;;6.10;5.50;;;21.70;58.40;;;;;;4938403;29;20444;-58
2021/06/25 10:08:52;;;;;;;9.35;5.05;;;21.80;58.00;;;;;;4939510;28;20062;-57
2021/06/25 10:11:20;;;;;;;12.73;8.02;;;22.00;57.60;;;;;;4939202;29;20063;-59
2021/06/25 10:13:49;;;;;;;8.85;7.65;;;22.00;56.50;;;;;;4940132;29;20035;-58
2021/06/25 10:16:15;;;;;;;8.07;6.82;;;21.80;56.40;;;;;;4938666;29;20047;-59
2021/06/25 10:18:46;;;;;;;16.02;8.57;;;21.70;56.80;;;;;;4939210;29;20051;-59
2021/06/25 10:21:24;;;;;;;9.15;8.13;;;21.50;56.80;;;;;;4939340;29;20036;-61
2021/06/25 10:24:09;;;;;;;10.65;7.10;;;21.50;57.00;;;;;;4940221;29;20042;-61
2021/06/25 10:26:36;;;;;;;11.82;8.15;;;21.40;57.60;;;;;;4923989;29;20062;-61
2021/06/25 10:29:04;;;;;;;10.23;7.78;;;21.40;58.20;;;;;;4938340;29;20046;-61
2021/06/25 10:31:29;;;;;;;9.85;7.00;;;21.30;58.40;;;;;;4920653;29;20062;-61
2021/06/25 10:33:56;;;;;;;14.68;8.52;;;21.10;59.10;;;;;;4937525;29;20476;-61
2021/06/25 10:36:27;;;;;;;9.70;8.05;;;21.10;58.90;;;;;;4939266;29;20071;-61
2021/06/25 10:38:53;;;;;;;10.93;8.77;;;21.10;58.70;;;;;;4939840;29;20478;-61
2021/06/25 10:41:21;;;;;;;11.82;8.73;;;21.10;58.40;;;;;;4930656;29;20495;-61
2021/06/25 10:43:52;;;;;;;15.52;8.75;;;21.10;57.80;;;;;;4934733;29;20035;-60
2021/06/25 10:46:37;;;;;;;12.00;6.93;;;21.10;57.70;;;;;;4943290;29;20114;-61
2021/06/25 10:49:13;;;;;;;12.27;9.10;;;21.20;57.60;;;;;;4942509;29;20043;-61
2021/06/25 10:51:41;;;;;;;11.77;8.65;;;21.10;56.80;;;;;;4943293;29;20058;-60
2021/06/25 10:54:15;;;;;;;12.48;8.63;;;21.00;56.70;;;;;;4939990;29;20399;-60
2021/06/25 10:56:49;;;;;;;10.68;7.45;;;21.00;56.50;;;;;;4941574;29;20175;-61
2021/06/25 10:59:27;;;;;;;8.30;7.13;;;21.00;56.90;;;;;;4943428;29;20067;-61
2021/06/25 11:02:09;;;;;;;13.68;8.07;;;21.10;57.80;;;;;;4942197;29;20453;-61
2021/06/25 11:04:40;;;;;;;12.52;8.18;;;21.40;56.90;;;;;;4941278;28;20074;-60
2021/06/25 11:07:16;;;;;;;11.77;7.95;;;21.70;56.50;;;;;;4941658;29;20054;-60
2021/06/25 11:09:52;;;;;;;12.43;8.07;;;21.70;56.00;;;;;;4922813;29;20046;-60
2021/06/25 11:12:23;;;;;;;12.95;8.25;;;21.80;55.40;;;;;;4942907;29;20063;-59
2021/06/25 11:14:51;;;;;;;10.05;7.53;;;21.70;55.10;;;;;;4943075;29;20074;-59
2021/06/25 11:17:49;;;;;;;9.45;7.60;;;21.70;54.60;;;;;;4943768;29;20536;-60
2021/06/25 11:20:54;;;;;;;14.20;7.32;;;21.70;54.40;;;;;;4942468;29;20373;-60
2021/06/25 11:23:26;;;;;;;10.27;8.23;;;21.80;54.70;;;;;;4912284;29;20051;-61
2021/06/25 11:26:00;;;;;;;11.82;7.55;;;21.80;54.60;;;;;;4941202;29;20548;-60
2021/06/25 11:28:37;;;;;;;10.75;6.78;;;22.00;55.50;;;;;;4943791;29;20118;-60
2021/06/25 11:31:18;;;;;;;11.82;6.35;;;22.20;55.10;;;;;;4924425;29;20491;-60
2021/06/25 11:33:50;;;;;;;9.25;6.53;;;22.40;54.30;;;;;;4940997;29;20040;-62
2021/06/25 11:36:21;;;;;;;11.65;5.72;;;22.60;54.40;;;;;;4942018;29;20032;-62
2021/06/25 11:38:56;;;;;;;11.32;6.47;;;22.70;54.40;;;;;;4941402;29;20055;-62
2021/06/25 11:41:45;;;;;;;9.45;6.47;;;22.90;52.60;;;;;;4941831;29;20047;-62
2021/06/25 11:44:15;;;;;;;12.15;6.53;;;22.90;51.40;;;;;;4942183;29;20052;-62
2021/06/25 11:47:09;;;;;;;9.05;6.93;;;22.90;52.80;;;;;;4941881;29;20050;-62
2021/06/25 11:49:44;;;;;;;10.07;7.50;;;23.10;52.50;;;;;;4930367;29;20145;-62
2021/06/25 11:52:21;;;;;;;9.88;7.65;;;23.20;51.80;;;;;;4940006;29;20508;-62
2021/06/25 11:54:51;;;;;;;16.20;7.00;;;23.00;51.40;;;;;;4940616;28;20051;-62
2021/06/25 11:57:23;;;;;;;11.40;7.22;;;22.80;52.30;;;;;;4942129;29;20396;-59
2021/06/25 12:00:05;;;;;;;11.02;8.23;;;22.80;52.40;;;;;;4925090;29;20051;-62
2021/06/25 12:02:40;;;;;;;14.35;8.05;;;22.90;51.50;;;;;;4939786;29;20047;-62
2021/06/25 12:05:06;;;;;;;12.07;8.02;;;22.50;51.50;;;;;;4941237;29;20050;-63
2021/06/25 12:07:33;;;;;;;11.23;7.20;;;22.20;51.90;;;;;;4941837;29;20178;-66
2021/06/25 12:09:58;;;;;;;14.15;8.25;;;22.10;52.90;;;;;;4940662;29;20463;-64
2021/06/25 12:12:32;;;;;;;9.35;7.07;;;22.20;53.10;;;;;;4909729;29;20119;-66
2021/06/25 12:15:01;;;;;;;12.93;7.28;;;22.30;53.10;;;;;;4941845;29;20054;-66
2021/06/25 12:17:40;;;;;;;10.65;6.70;;;22.50;54.10;;;;;;4939815;29;20047;-66
2021/06/25 12:20:28;;;;;;;29.00;9.40;;;22.70;54.10;;;;;;4942533;29;20039;-64
2021/06/25 12:23:01;;;;;;;12.88;7.10;;;23.00;52.20;;;;;;4940804;29;20127;-65
2021/06/25 12:25:36;;;;;;;16.60;7.32;;;23.00;52.40;;;;;;4940001;29;20043;-65
2021/06/25 12:28:22;;;;;;;8.38;6.60;;;23.00;53.20;;;;;;4942459;29;20483;-69
2021/06/25 12:30:50;;;;;;;12.82;8.05;;;23.10;53.30;;;;;;4924011;29;20118;-68
2021/06/25 12:33:21;;;;;;;15.27;7.78;;;23.20;52.40;;;;;;4942417;29;20117;-69
2021/06/25 12:35:52;;;;;;;15.98;7.25;;;23.20;52.30;;;;;;4941190;29;20039;-69
2021/06/25 12:38:20;;;;;;;12.18;8.48;;;23.20;51.90;;;;;;4939648;29;20039;-69
2021/06/25 12:40:49;;;;;;;15.20;8.30;;;23.10;51.40;;;;;;4941089;29;20043;-68
2021/06/25 12:43:18;;;;;;;14.35;12.77;;;22.80;51.00;;;;;;4940872;29;20126;-69
2021/06/25 12:45:50;;;;;;;14.45;9.32;;;22.60;51.90;;;;;;4939265;29;20043;-67
2021/06/25 12:48:25;;;;;;;12.70;8.77;;;22.40;52.00;;;;;;4939442;29;20036;-68
2021/06/25 12:51:04;;;;;;;10.80;7.78;;;22.20;52.60;;;;;;4940544;29;20051;-68
2021/06/25 12:53:36;;;;;;;12.38;8.68;;;22.30;52.90;;;;;;4939575;29;20508;-69
2021/06/25 12:56:07;;;;;;;13.43;8.48;;;22.30;52.60;;;;;;4940260;29;20170;-69
2021/06/25 12:58:37;;;;;;;10.70;7.43;;;22.30;52.60;;;;;;4941253;29;20047;-69
2021/06/25 13:01:04;;;;;;;10.15;8.32;;;22.40;53.70;;;;;;4922543;29;20522;-68
2021/06/25 13:03:31;;;;;;;14.13;7.65;;;22.60;53.60;;;;;;4939478;28;20935;-66